createdAt,value
2018-03-30T00:04:17.201Z,29.30
2018-03-30T00:06:45.783Z,30.20
2018-03-30T00:09:25.843Z,25.42
2018-03-30T00:11:54.299Z,22.02
2018-03-30T00:14:22.688Z,24.73
2018-03-30T00:16:51.103Z,21.05
2018-03-30T00:19:19.647Z,22.20
2018-03-30T00:21:48.079Z,22.80
2018-03-30T00:24:16.514Z,22.77
2018-03-30T00:26:44.999Z,21.50
2018-03-30T00:29:13.329Z,21.95
2018-03-30T00:31:41.758Z,19.75
2018-03-30T00:34:10.192Z,18.95
2018-03-30T00:36:38.563Z,19.60
2018-03-30T00:39:06.971Z,17.45
2018-03-30T00:41:35.416Z,18.92
2018-03-30T00:44:03.864Z,21.90
2018-03-30T00:46:32.252Z,18.05
2018-03-30T00:49:00.688Z,18.65
2018-03-30T00:51:29.109Z,19.40
2018-03-30T00:53:57.562Z,21.95
2018-03-30T00:56:25.974Z,19.05
2018-03-30T00:58:54.384Z,18.55
2018-03-30T01:01:22.795Z,15.63
2018-03-30T01:03:51.315Z,17.10
2018-03-30T01:06:19.698Z,18.05
2018-03-30T01:08:48.063Z,21.37
2018-03-30T01:11:16.592Z,22.73
2018-03-30T01:13:45.099Z,23.77
2018-03-30T01:16:13.493Z,26.95
2018-03-30T01:18:42.027Z,24.10
2018-03-30T01:21:10.441Z,18.12
2018-03-30T01:23:38.801Z,17.15
2018-03-30T01:26:07.225Z,20.02
2018-03-30T01:28:35.621Z,17.33
2018-03-30T01:31:04.076Z,18.85
2018-03-30T01:33:32.491Z,19.05
2018-03-30T01:36:00.967Z,15.90
2018-03-30T01:38:29.372Z,16.98
2018-03-30T01:40:57.904Z,18.67
2018-03-30T01:43:26.299Z,21.05
2018-03-30T01:45:54.713Z,17.20
2018-03-30T01:48:23.173Z,18.65
2018-03-30T01:50:51.568Z,22.02
2018-03-30T01:53:19.976Z,20.10
2018-03-30T01:55:48.511Z,21.98
2018-03-30T01:58:16.875Z,19.25
2018-03-30T02:00:45.273Z,20.37
2018-03-30T02:03:13.738Z,16.10
2018-03-30T02:05:42.161Z,17.17
2018-03-30T02:08:10.554Z,19.77
2018-03-30T02:10:38.966Z,18.70
2018-03-30T02:13:07.344Z,15.48
2018-03-30T02:15:35.736Z,18.52
2018-03-30T02:18:04.207Z,17.70
2018-03-30T02:20:32.592Z,19.00
2018-03-30T02:23:00.988Z,21.50
2018-03-30T02:25:29.403Z,20.45
2018-03-30T02:27:57.794Z,22.42
2018-03-30T02:30:26.238Z,19.48
2018-03-30T02:32:54.637Z,23.55
2018-03-30T02:35:23.034Z,18.42
2018-03-30T02:37:51.454Z,22.00
2018-03-30T02:40:19.816Z,27.95
2018-03-30T02:42:48.182Z,23.50
2018-03-30T02:45:16.579Z,24.67
2018-03-30T02:47:45.118Z,34.42
2018-03-30T02:50:13.485Z,27.17
2018-03-30T02:52:41.871Z,27.55
2018-03-30T02:55:10.298Z,26.55
2018-03-30T02:57:38.704Z,29.83
2018-03-30T03:03:06.401Z,24.55
2018-03-30T03:05:34.874Z,23.48
2018-03-30T03:08:03.251Z,27.92
2018-03-30T03:10:31.629Z,21.15
2018-03-30T03:13:00.068Z,21.37
2018-03-30T03:15:28.432Z,16.55
2018-03-30T03:17:56.833Z,17.58
2018-03-30T03:20:25.204Z,16.65
2018-03-30T03:22:53.709Z,18.70
2018-03-30T03:25:22.114Z,19.67
2018-03-30T03:27:50.505Z,11.97
2018-03-30T03:30:18.969Z,17.10
2018-03-30T03:32:47.359Z,14.27
2018-03-30T03:35:15.741Z,15.73
2018-03-30T03:37:44.197Z,14.48
2018-03-30T03:40:12.672Z,12.52
2018-03-30T03:42:41.024Z,13.80
2018-03-30T03:45:09.460Z,16.95
2018-03-30T03:47:37.886Z,14.50
2018-03-30T03:50:06.336Z,16.55
2018-03-30T03:52:34.741Z,12.57
2018-03-30T03:55:03.212Z,15.10
2018-03-30T03:57:31.606Z,12.90
2018-03-30T03:59:59.990Z,13.45
2018-03-30T04:02:28.505Z,15.70
2018-03-30T04:04:56.894Z,19.25
2018-03-30T04:07:25.301Z,11.73
2018-03-30T04:09:53.748Z,16.00
2018-03-30T04:12:22.178Z,14.45
2018-03-30T04:14:50.628Z,10.57
2018-03-30T04:17:19.028Z,11.97
2018-03-30T04:19:47.403Z,12.80
2018-03-30T04:22:15.868Z,11.10
2018-03-30T04:24:44.248Z,14.20
2018-03-30T04:27:12.717Z,17.47
2018-03-30T04:29:41.099Z,13.10
2018-03-30T04:32:09.501Z,15.23
2018-03-30T04:34:38.027Z,17.80
2018-03-30T04:37:06.491Z,13.37
2018-03-30T04:39:34.843Z,11.70
2018-03-30T04:42:03.316Z,11.97
2018-03-30T04:44:31.670Z,15.23
2018-03-30T04:47:00.202Z,20.10
2018-03-30T04:49:28.544Z,19.23
2018-03-30T04:51:56.925Z,23.25
2018-03-30T04:54:25.362Z,22.63
2018-03-30T04:56:53.713Z,25.08
2018-03-30T04:59:22.147Z,25.25
2018-03-30T05:01:50.599Z,25.33
2018-03-30T05:04:18.959Z,24.90
2018-03-30T05:06:47.370Z,26.40
2018-03-30T05:09:15.782Z,22.58
2018-03-30T05:11:44.207Z,23.25
2018-03-30T05:14:12.626Z,22.17
2018-03-30T05:16:41.048Z,18.33
2018-03-30T05:19:09.477Z,18.70
2018-03-30T05:21:37.843Z,23.25
2018-03-30T05:24:06.253Z,25.08
2018-03-30T05:26:34.657Z,23.48
2018-03-30T05:29:03.068Z,24.40
2018-03-30T05:31:31.631Z,22.27
2018-03-30T05:34:00.014Z,17.20
2018-03-30T05:36:28.396Z,16.58
2018-03-30T05:38:56.931Z,16.65
2018-03-30T05:41:25.326Z,20.48
2018-03-30T05:43:53.735Z,20.55
2018-03-30T05:46:22.173Z,13.27
2018-03-30T05:48:50.596Z,18.60
2018-03-30T05:51:19.041Z,14.30
2018-03-30T05:53:47.418Z,18.70
2018-03-30T05:56:15.796Z,18.77
2018-03-30T05:58:44.260Z,14.23
2018-03-30T06:01:12.660Z,17.20
2018-03-30T06:03:41.064Z,16.20
2018-03-30T06:06:09.640Z,19.20
2018-03-30T06:08:38.051Z,14.97
2018-03-30T06:11:06.447Z,13.90
2018-03-30T06:13:34.963Z,16.37
2018-03-30T06:16:03.363Z,19.53
2018-03-30T06:18:31.810Z,19.10
2018-03-30T06:21:00.379Z,15.83
2018-03-30T06:23:28.784Z,15.30
2018-03-30T06:25:57.196Z,17.60
2018-03-30T06:28:25.727Z,17.17
2018-03-30T06:30:54.230Z,18.57
2018-03-30T06:33:22.683Z,16.00
2018-03-30T06:35:51.248Z,20.70
2018-03-30T06:38:19.648Z,16.53
2018-03-30T06:40:48.065Z,20.07
2018-03-30T06:43:16.536Z,21.27
2018-03-30T06:45:44.921Z,17.93
2018-03-30T06:48:13.353Z,16.70
2018-03-30T06:50:41.785Z,15.87
2018-03-30T06:53:10.190Z,19.10
2018-03-30T06:55:38.630Z,17.50
2018-03-30T06:58:06.991Z,12.33
2018-03-30T07:00:35.384Z,11.77
2018-03-30T07:03:03.800Z,9.47
2018-03-30T07:05:32.164Z,14.00
2018-03-30T07:08:00.527Z,11.57
2018-03-30T07:10:28.983Z,8.03
2018-03-30T07:12:57.339Z,9.17
2018-03-30T07:15:25.701Z,10.43
2018-03-30T07:17:54.239Z,11.10
2018-03-30T07:20:22.615Z,7.10
2018-03-30T07:22:50.987Z,11.73
2018-03-30T07:25:19.452Z,6.50
2018-03-30T07:27:47.883Z,6.90
2018-03-30T07:30:16.284Z,12.00
2018-03-30T07:32:44.685Z,7.00
2018-03-30T07:35:13.101Z,6.40
2018-03-30T07:37:41.504Z,8.63
2018-03-30T07:40:09.964Z,5.43
2018-03-30T07:42:38.439Z,7.97
2018-03-30T07:45:06.808Z,3.97
2018-03-30T07:47:35.271Z,6.60
2018-03-30T07:50:03.695Z,7.23
2018-03-30T07:52:32.095Z,5.63
2018-03-30T07:55:00.632Z,7.40
2018-03-30T07:57:29.210Z,7.07
2018-03-30T07:59:57.591Z,5.47
2018-03-30T08:02:26.078Z,7.70
2018-03-30T08:04:54.525Z,5.50
2018-03-30T08:07:22.933Z,10.60
2018-03-30T08:09:51.417Z,5.60
2018-03-30T08:12:19.836Z,5.80
2018-03-30T08:14:48.364Z,8.90
2018-03-30T08:17:16.835Z,5.93
2018-03-30T08:19:45.217Z,5.57
2018-03-30T08:22:13.668Z,5.00
2018-03-30T08:24:42.033Z,9.27
2018-03-30T08:27:10.446Z,8.67
2018-03-30T08:29:38.929Z,6.60
2018-03-30T08:32:07.333Z,5.47
2018-03-30T08:34:35.760Z,7.50
2018-03-30T08:37:04.186Z,7.23
2018-03-30T08:39:32.577Z,8.27
2018-03-30T08:42:00.968Z,5.27
2018-03-30T08:44:29.376Z,9.50
2018-03-30T08:46:57.783Z,9.13
2018-03-30T08:49:26.198Z,7.83
2018-03-30T08:51:54.641Z,7.10
2018-03-30T08:54:23.016Z,6.57
2018-03-30T08:56:51.412Z,6.10
2018-03-30T08:59:19.973Z,12.77
2018-03-30T09:01:48.444Z,6.00
2018-03-30T09:04:16.803Z,7.40
2018-03-30T09:06:45.230Z,5.40
2018-03-30T09:09:13.691Z,6.53
2018-03-30T09:11:42.098Z,15.83
2018-03-30T09:14:10.576Z,6.13
2018-03-30T09:16:38.987Z,8.27
2018-03-30T09:19:07.512Z,7.13
2018-03-30T09:21:35.872Z,8.50
2018-03-30T09:24:04.239Z,10.27
2018-03-30T09:26:32.658Z,7.57
2018-03-30T09:29:01.041Z,8.97
2018-03-30T09:31:29.415Z,8.83
2018-03-30T09:33:57.833Z,9.50
2018-03-30T09:36:26.282Z,6.80
2018-03-30T09:38:54.687Z,9.33
2018-03-30T09:41:23.053Z,7.23
2018-03-30T09:43:51.428Z,10.80
2018-03-30T09:46:19.911Z,10.43
2018-03-30T09:48:48.311Z,7.43
2018-03-30T09:51:16.667Z,7.70
2018-03-30T09:53:45.179Z,8.60
2018-03-30T09:56:13.543Z,6.80
2018-03-30T09:58:41.922Z,10.00
2018-03-30T10:01:16.303Z,7.13
2018-03-30T10:03:48.443Z,7.50
2018-03-30T10:06:16.891Z,8.37
2018-03-30T10:08:45.397Z,7.30
2018-03-30T10:11:13.806Z,8.67
2018-03-30T10:13:42.339Z,8.10
2018-03-30T10:16:10.739Z,8.37
2018-03-30T10:18:39.130Z,8.10
2018-03-30T10:21:07.594Z,11.00
2018-03-30T10:23:36.013Z,7.53
2018-03-30T10:26:04.484Z,10.20
2018-03-30T10:28:32.945Z,7.97
2018-03-30T10:31:01.342Z,7.90
2018-03-30T10:33:29.813Z,9.23
2018-03-30T10:35:58.330Z,8.47
2018-03-30T10:38:26.695Z,8.27
2018-03-30T10:40:55.055Z,8.40
2018-03-30T10:43:23.529Z,7.53
2018-03-30T10:45:51.899Z,11.97
2018-03-30T10:48:20.260Z,7.33
2018-03-30T10:50:48.703Z,11.87
2018-03-30T10:53:17.074Z,7.73
2018-03-30T10:55:45.482Z,8.23
2018-03-30T10:58:13.939Z,9.10
2018-03-30T11:00:42.317Z,10.77
2018-03-30T11:03:10.693Z,10.60
2018-03-30T11:05:39.239Z,8.57
2018-03-30T11:08:07.752Z,9.30
2018-03-30T11:10:36.122Z,10.60
2018-03-30T11:13:04.582Z,8.27
2018-03-30T11:15:32.980Z,11.80
2018-03-30T11:18:01.416Z,6.57
2018-03-30T11:20:29.846Z,6.37
2018-03-30T11:22:58.205Z,9.40
2018-03-30T11:25:26.563Z,8.13
2018-03-30T11:27:55.004Z,6.90
2018-03-30T11:30:23.474Z,7.67
2018-03-30T11:32:51.864Z,5.67
2018-03-30T11:35:20.261Z,7.00
2018-03-30T11:37:48.638Z,7.70
2018-03-30T11:40:17.083Z,5.30
2018-03-30T11:42:45.965Z,7.43
2018-03-30T11:45:14.332Z,7.00
2018-03-30T11:47:42.820Z,9.73
2018-03-30T11:50:11.180Z,7.67
2018-03-30T11:52:39.599Z,7.80
2018-03-30T11:55:07.974Z,6.47
2018-03-30T11:57:36.328Z,6.60
2018-03-30T12:00:04.738Z,9.23
2018-03-30T12:02:33.086Z,7.10
2018-03-30T12:05:01.465Z,7.23
2018-03-30T12:07:29.914Z,8.03
2018-03-30T12:09:58.284Z,8.47
2018-03-30T12:12:26.735Z,6.30
2018-03-30T12:14:55.138Z,5.80
2018-03-30T12:17:23.494Z,8.50
2018-03-30T12:19:51.941Z,5.77
2018-03-30T12:22:20.337Z,7.50
2018-03-30T12:24:48.779Z,8.83
2018-03-30T12:27:17.183Z,8.67
2018-03-30T12:29:45.585Z,8.00
2018-03-30T12:32:13.931Z,8.43
2018-03-30T12:34:42.303Z,12.40
2018-03-30T12:37:10.714Z,8.33
2018-03-30T12:39:39.130Z,6.90
2018-03-30T12:42:07.500Z,8.00
2018-03-30T12:44:35.943Z,8.87
2018-03-30T12:47:04.327Z,7.60
2018-03-30T12:49:32.789Z,7.57
2018-03-30T12:52:01.177Z,7.20
2018-03-30T12:54:29.533Z,9.30
2018-03-30T12:56:58.003Z,8.97
2018-03-30T12:59:26.594Z,9.23
2018-03-30T13:01:54.972Z,8.87
2018-03-30T13:04:23.359Z,7.53
2018-03-30T13:06:51.733Z,5.83
2018-03-30T13:09:20.204Z,8.37
2018-03-30T13:11:48.600Z,9.00
2018-03-30T13:14:17.905Z,9.83
2018-03-30T13:16:46.444Z,8.20
2018-03-30T13:19:14.856Z,8.40
2018-03-30T13:21:43.225Z,8.57
2018-03-30T13:24:11.682Z,9.33
2018-03-30T13:26:40.151Z,7.30
2018-03-30T13:29:08.571Z,8.90
2018-03-30T13:31:36.947Z,12.63
2018-03-30T13:34:05.580Z,13.47
2018-03-30T13:36:34.037Z,9.43
2018-03-30T13:39:02.460Z,8.87
2018-03-30T13:41:30.882Z,10.63
2018-03-30T13:43:59.301Z,10.80
2018-03-30T13:46:27.690Z,9.07
2018-03-30T13:48:56.238Z,11.53
2018-03-30T13:51:29.318Z,9.60
2018-03-30T13:54:00.066Z,10.67
2018-03-30T13:56:33.791Z,14.93
2018-03-30T13:59:14.993Z,11.97
2018-03-30T14:01:45.200Z,10.47
2018-03-30T14:04:17.517Z,8.77
2018-03-30T14:06:51.282Z,11.00
2018-03-30T14:09:28.953Z,13.43
2018-03-30T14:11:59.070Z,10.60
2018-03-30T14:14:27.562Z,11.10
2018-03-30T14:19:53.075Z,9.70
2018-03-30T14:22:23.902Z,9.63
2018-03-30T14:24:53.978Z,8.73
2018-03-30T14:27:44.160Z,10.20
2018-03-30T14:33:33.492Z,11.37
2018-03-30T14:36:14.439Z,11.20
2018-03-30T14:38:42.884Z,11.77
2018-03-30T14:41:11.308Z,10.67
2018-03-30T14:43:41.278Z,9.13
2018-03-30T14:46:24.991Z,11.00
2018-03-30T14:49:04.081Z,11.87
2018-03-30T14:51:34.449Z,15.20
2018-03-30T14:54:15.612Z,12.27
2018-03-30T14:56:44.008Z,11.57
2018-03-30T14:59:28.162Z,10.93
2018-03-30T15:02:08.069Z,24.33
2018-03-30T15:07:39.131Z,10.40
2018-03-30T15:10:16.393Z,8.30
2018-03-30T15:12:52.544Z,9.47
2018-03-30T15:15:31.697Z,10.13
2018-03-30T15:18:11.125Z,7.20
2018-03-30T15:20:42.854Z,10.73
2018-03-30T15:23:19.573Z,8.20
2018-03-30T15:25:51.580Z,7.97
2018-03-30T15:28:21.678Z,9.53
2018-03-30T15:31:03.503Z,5.37
2018-03-30T15:33:36.286Z,7.77
2018-03-30T15:36:08.471Z,5.80
2018-03-30T15:38:37.050Z,5.13
2018-03-30T15:41:05.579Z,6.10
2018-03-30T15:43:36.779Z,5.03
2018-03-30T15:46:23.530Z,5.00
2018-03-30T15:48:51.980Z,7.23
2018-03-30T15:51:29.378Z,3.70
2018-03-30T15:53:57.315Z,3.63
2018-03-30T15:56:26.582Z,5.50
2018-03-30T15:58:55.124Z,3.97
2018-03-30T16:01:23.508Z,5.90
2018-03-30T16:03:52.069Z,4.37
2018-03-30T16:06:20.535Z,6.50
2018-03-30T16:08:48.999Z,3.90
2018-03-30T16:14:14.111Z,8.53
2018-03-30T16:16:42.572Z,3.80
2018-03-30T16:19:10.438Z,5.63
2018-03-30T16:21:38.309Z,3.87
2018-03-30T16:24:07.527Z,9.47
2018-03-30T16:26:35.497Z,4.30
2018-03-30T16:29:03.621Z,4.20
2018-03-30T16:31:32.404Z,4.03
2018-03-30T16:34:00.487Z,5.23
2018-03-30T16:36:29.337Z,5.50
2018-03-30T16:38:57.240Z,5.93
2018-03-30T16:41:24.928Z,5.23
2018-03-30T16:43:52.562Z,6.77
2018-03-30T16:46:20.089Z,5.70
2018-03-30T16:48:47.904Z,6.20
2018-03-30T16:51:15.491Z,6.37
2018-03-30T16:53:44.203Z,8.70
2018-03-30T16:56:13.044Z,9.53
2018-03-30T16:58:40.686Z,6.30
2018-03-30T17:01:08.507Z,5.80
2018-03-30T17:03:36.111Z,8.20
2018-03-30T17:06:04.180Z,5.50
2018-03-30T17:08:37.415Z,8.03
2018-03-30T17:11:06.865Z,10.97
2018-03-30T17:13:34.446Z,6.47
2018-03-30T17:16:01.993Z,6.83
2018-03-30T17:18:29.580Z,7.80
2018-03-30T17:20:59.041Z,7.60
2018-03-30T17:23:26.593Z,9.93
2018-03-30T17:25:54.964Z,7.43
2018-03-30T17:28:22.651Z,7.17
2018-03-30T17:30:50.216Z,5.23
2018-03-30T17:33:17.823Z,6.43
2018-03-30T17:35:47.299Z,6.47
2018-03-30T17:38:14.924Z,5.57
2018-03-30T17:40:42.502Z,6.70
2018-03-30T17:43:11.152Z,6.60
2018-03-30T17:45:38.710Z,6.60
2018-03-30T17:48:06.254Z,6.57
2018-03-30T17:50:33.812Z,6.30
2018-03-30T17:53:01.349Z,8.73
2018-03-30T17:55:28.900Z,9.83
2018-03-30T17:57:57.631Z,9.73
2018-03-30T18:00:25.186Z,7.83
2018-03-30T18:02:58.548Z,8.27
2018-03-30T18:05:26.953Z,7.07
2018-03-30T18:07:54.533Z,8.60
2018-03-30T18:10:22.108Z,6.03
2018-03-30T18:12:50.717Z,7.67
2018-03-30T18:15:21.338Z,8.37
2018-03-30T18:17:48.916Z,7.80
2018-03-30T18:20:18.231Z,6.07
2018-03-30T18:22:46.106Z,7.60
2018-03-30T18:25:13.752Z,8.00
2018-03-30T18:27:41.310Z,11.00
2018-03-30T18:30:10.551Z,8.73
2018-03-30T18:32:38.285Z,8.23
2018-03-30T18:35:05.857Z,7.57
2018-03-30T18:37:35.274Z,8.40
2018-03-30T18:40:02.820Z,6.73
2018-03-30T18:42:32.175Z,8.07
2018-03-30T18:44:59.756Z,8.77
2018-03-30T18:47:27.433Z,6.50
2018-03-30T18:49:55.108Z,9.90
2018-03-30T18:52:23.107Z,10.50
2018-03-30T18:54:50.697Z,9.23
2018-03-30T18:57:18.279Z,7.67
2018-03-30T18:59:45.919Z,7.87
2018-03-30T19:02:13.487Z,7.67
2018-03-30T19:04:44.116Z,9.90
2018-03-30T19:07:11.995Z,9.47
2018-03-30T19:09:39.653Z,8.93
2018-03-30T19:12:12.649Z,8.10
2018-03-30T19:14:41.086Z,10.00
2018-03-30T19:17:08.659Z,8.20
2018-03-30T19:19:37.227Z,8.47
2018-03-30T19:22:05.677Z,12.60
2018-03-30T19:24:34.417Z,10.70
2018-03-30T19:27:02.003Z,9.60
2018-03-30T19:29:33.155Z,12.47
2018-03-30T19:32:00.733Z,10.80
2018-03-30T19:34:29.884Z,8.93
2018-03-30T19:37:03.181Z,11.33
2018-03-30T19:39:30.723Z,10.13
2018-03-30T19:41:58.261Z,13.63
2018-03-30T19:44:25.881Z,11.97
2018-03-30T19:46:53.542Z,9.67
2018-03-30T19:49:24.226Z,8.70
2018-03-30T19:51:53.460Z,8.53
2018-03-30T19:54:21.747Z,7.87
2018-03-30T19:56:50.555Z,8.80
2018-03-30T19:59:18.148Z,9.87
2018-03-30T20:01:46.204Z,9.57
2018-03-30T20:04:14.133Z,7.77
2018-03-30T20:06:41.683Z,8.00
2018-03-30T20:09:09.875Z,8.40
2018-03-30T20:11:38.485Z,8.67
2018-03-30T20:14:06.041Z,9.93
2018-03-30T20:16:35.203Z,7.63
2018-03-30T20:19:03.062Z,9.07
2018-03-30T20:21:31.058Z,9.17
2018-03-30T20:23:58.596Z,9.93
2018-03-30T20:26:27.007Z,5.93
2018-03-30T20:28:54.661Z,7.37
2018-03-30T20:31:22.809Z,7.90
2018-03-30T20:33:50.600Z,9.37
2018-03-30T20:36:18.150Z,9.30
2018-03-30T20:38:45.704Z,9.20
2018-03-30T20:41:13.523Z,7.10
2018-03-30T20:43:41.113Z,11.20
2018-03-30T20:46:08.697Z,7.17
2018-03-30T20:48:39.850Z,8.20
2018-03-30T20:51:07.380Z,8.67
2018-03-30T20:53:34.924Z,8.73
2018-03-30T20:56:02.464Z,7.13
2018-03-30T20:58:30.047Z,8.17
2018-03-30T21:00:57.580Z,7.03
2018-03-30T21:03:25.204Z,6.37
2018-03-30T21:05:52.775Z,5.40
2018-03-30T21:08:20.384Z,6.40
2018-03-30T21:10:47.952Z,9.73
2018-03-30T21:13:15.485Z,7.83
2018-03-30T21:15:43.030Z,8.93
2018-03-30T21:18:10.784Z,8.33
2018-03-30T21:20:38.320Z,7.40
2018-03-30T21:23:05.886Z,7.13
2018-03-30T21:25:33.480Z,6.63
2018-03-30T21:28:01.025Z,5.03
2018-03-30T21:30:28.583Z,10.73
2018-03-30T21:32:56.327Z,6.93
2018-03-30T21:35:23.896Z,7.10
2018-03-30T21:37:51.473Z,5.10
2018-03-30T21:40:19.002Z,9.70
2018-03-30T21:42:46.538Z,5.80
2018-03-30T21:45:14.210Z,7.00
2018-03-30T21:47:41.787Z,6.60
2018-03-30T21:50:09.329Z,6.90
2018-03-30T21:52:36.869Z,7.67
2018-03-30T21:55:04.454Z,17.40
2018-03-30T21:57:32.005Z,5.27
2018-03-30T21:59:59.578Z,7.63
2018-03-30T22:02:27.173Z,5.13
2018-03-30T22:04:54.712Z,9.87
2018-03-30T22:07:22.292Z,6.10
2018-03-30T22:09:49.867Z,13.40
2018-03-30T22:12:17.435Z,8.77
2018-03-30T22:14:45.770Z,7.50
2018-03-30T22:17:13.380Z,6.90
2018-03-30T22:19:40.955Z,9.40
2018-03-30T22:22:08.564Z,10.07
2018-03-30T22:24:36.130Z,9.90
2018-03-30T22:27:03.700Z,11.07
2018-03-30T22:29:31.334Z,10.40
2018-03-30T22:31:58.869Z,8.20
2018-03-30T22:34:26.446Z,9.83
2018-03-30T22:36:54.063Z,10.33
2018-03-30T22:39:21.711Z,10.50
2018-03-30T22:41:49.327Z,8.87
2018-03-30T22:44:16.913Z,13.90
2018-03-30T22:46:44.465Z,9.20
2018-03-30T22:49:12.096Z,10.53
2018-03-30T22:51:39.729Z,13.10
2018-03-30T22:54:07.315Z,10.90
2018-03-30T22:56:34.877Z,12.63
2018-03-30T22:59:02.420Z,11.30
2018-03-30T23:01:29.972Z,10.17
2018-03-30T23:03:57.523Z,12.77
2018-03-30T23:06:25.456Z,14.63
2018-03-30T23:08:53.317Z,16.03
2018-03-30T23:11:21.305Z,20.37
2018-03-30T23:13:49.140Z,15.47
2018-03-30T23:16:16.980Z,12.27
2018-03-30T23:18:44.809Z,15.60
2018-03-30T23:21:12.660Z,13.93
2018-03-30T23:23:40.489Z,14.73
2018-03-30T23:26:08.312Z,14.17
2018-03-30T23:28:36.151Z,12.50
2018-03-30T23:31:03.983Z,13.13
2018-03-30T23:33:31.803Z,13.57
2018-03-30T23:35:59.665Z,12.27
2018-03-30T23:38:27.490Z,21.50
2018-03-30T23:40:55.347Z,13.70
2018-03-30T23:43:23.250Z,9.93
2018-03-30T23:45:51.190Z,13.83
2018-03-30T23:48:19.012Z,14.83
2018-03-30T23:50:46.864Z,13.00
2018-03-30T23:53:14.704Z,14.13
2018-03-30T23:55:42.598Z,12.57
2018-03-30T23:58:10.445Z,15.23
